createdAt,value
2018-04-20T00:01:42.167Z,13.80
2018-04-20T00:04:11.532Z,13.70
2018-04-20T00:06:40.823Z,13.60
2018-04-20T00:09:10.286Z,13.60
2018-04-20T00:11:39.669Z,13.50
2018-04-20T00:14:08.929Z,13.50
2018-04-20T00:16:38.224Z,13.40
2018-04-20T00:19:07.526Z,13.40
2018-04-20T00:21:36.837Z,13.40
2018-04-20T00:24:06.113Z,13.40
2018-04-20T00:26:35.413Z,13.40
2018-04-20T00:29:04.795Z,13.30
2018-04-20T00:31:34.119Z,13.20
2018-04-20T00:34:03.439Z,13.20
2018-04-20T00:36:32.720Z,13.20
2018-04-20T00:39:02.076Z,13.20
2018-04-20T00:41:31.338Z,13.20
2018-04-20T00:44:00.625Z,13.10
2018-04-20T00:46:31.072Z,13.10
2018-04-20T00:49:00.363Z,13.10
2018-04-20T00:51:29.704Z,13.10
2018-04-20T00:54:16.974Z,13.00
2018-04-20T00:56:46.273Z,13.00
2018-04-20T00:59:16.357Z,13.00
2018-04-20T01:01:45.643Z,13.00
2018-04-20T01:04:15.696Z,13.00
2018-04-20T01:06:44.964Z,12.90
2018-04-20T01:09:14.261Z,12.90
2018-04-20T01:11:43.522Z,13.00
2018-04-20T01:14:12.781Z,13.00
2018-04-20T01:16:42.044Z,12.90
2018-04-20T01:19:12.080Z,13.00
2018-04-20T01:21:41.379Z,12.90
2018-04-20T01:24:10.714Z,12.90
2018-04-20T01:26:40.028Z,12.90
2018-04-20T01:29:09.338Z,12.90
2018-04-20T01:31:38.608Z,12.90
2018-04-20T01:34:07.991Z,12.90
2018-04-20T01:36:37.301Z,12.90
2018-04-20T01:39:06.719Z,12.80
2018-04-20T01:41:35.991Z,12.90
2018-04-20T01:44:05.317Z,12.80
2018-04-20T01:46:34.612Z,12.80
2018-04-20T01:49:03.908Z,12.80
2018-04-20T01:51:33.197Z,12.80
2018-04-20T01:54:03.065Z,12.70
2018-04-20T01:56:33.139Z,12.80
2018-04-20T01:59:02.413Z,12.70
2018-04-20T02:01:32.455Z,12.60
2018-04-20T02:04:01.720Z,12.60
2018-04-20T02:06:31.004Z,12.60
2018-04-20T02:09:00.299Z,12.60
2018-04-20T02:11:29.568Z,12.60
2018-04-20T02:13:59.718Z,12.60
2018-04-20T02:16:28.958Z,12.50
2018-04-20T02:18:58.221Z,12.50
2018-04-20T02:21:27.630Z,12.60
2018-04-20T02:23:57.233Z,12.50
2018-04-20T02:26:27.257Z,12.50
2018-04-20T02:28:56.525Z,12.50
2018-04-20T02:31:25.798Z,12.50
2018-04-20T02:33:55.391Z,12.50
2018-04-20T02:36:25.423Z,12.40
2018-04-20T02:38:54.894Z,12.40
2018-04-20T02:41:24.980Z,12.40
2018-04-20T02:43:54.302Z,12.40
2018-04-20T02:46:23.562Z,12.40
2018-04-20T02:48:52.823Z,12.40
2018-04-20T02:51:22.891Z,12.30
2018-04-20T02:53:52.236Z,12.30
2018-04-20T02:56:21.573Z,12.30
2018-04-20T02:58:51.564Z,12.30
2018-04-20T03:01:21.729Z,12.30
2018-04-20T03:03:51.035Z,12.30
2018-04-20T03:06:20.368Z,12.30
2018-04-20T03:08:49.631Z,12.30
2018-04-20T03:11:18.914Z,12.30
2018-04-20T03:13:48.212Z,12.30
2018-04-20T03:16:17.492Z,12.20
2018-04-20T03:18:47.579Z,12.10
2018-04-20T03:21:16.860Z,12.10
2018-04-20T03:23:46.136Z,12.20
2018-04-20T03:26:15.417Z,12.10
2018-04-20T03:28:44.729Z,12.10
2018-04-20T03:31:14.005Z,12.10
2018-04-20T03:33:44.061Z,12.00
2018-04-20T03:36:13.348Z,12.00
2018-04-20T03:38:42.621Z,12.00
2018-04-20T03:41:12.748Z,11.90
2018-04-20T03:43:42.030Z,11.90
2018-04-20T03:46:11.322Z,12.00
2018-04-20T03:48:41.476Z,12.00
2018-04-20T03:51:10.976Z,12.00
2018-04-20T03:53:41.022Z,12.00
2018-04-20T03:56:10.294Z,11.90
2018-04-20T03:58:39.650Z,11.90
2018-04-20T04:01:08.922Z,11.90
2018-04-20T04:03:38.180Z,11.90
2018-04-20T04:06:08.212Z,11.90
2018-04-20T04:08:37.532Z,11.90
2018-04-20T04:11:06.814Z,11.90
2018-04-20T04:13:36.119Z,11.80
2018-04-20T04:16:05.424Z,11.80
2018-04-20T04:18:52.594Z,11.80
2018-04-20T04:24:47.844Z,11.80
2018-04-20T04:27:47.782Z,11.80
2018-04-20T04:30:17.023Z,11.80
2018-04-20T04:32:46.297Z,11.70
2018-04-20T04:35:15.577Z,11.70
2018-04-20T04:37:44.864Z,11.70
2018-04-20T04:40:14.913Z,11.70
2018-04-20T04:42:44.206Z,11.70
2018-04-20T04:45:13.502Z,11.70
2018-04-20T04:47:42.898Z,11.80
2018-04-20T04:50:13.153Z,11.90
2018-04-20T04:52:42.438Z,11.90
2018-04-20T04:55:11.723Z,11.90
2018-04-20T04:57:41.765Z,12.00
2018-04-20T05:00:11.029Z,12.00
2018-04-20T05:02:41.063Z,12.00
2018-04-20T05:05:10.551Z,12.00
2018-04-20T05:07:39.860Z,12.10
2018-04-20T05:10:09.173Z,12.20
2018-04-20T05:12:38.453Z,12.30
2018-04-20T05:15:08.561Z,12.50
2018-04-20T05:17:38.678Z,12.60
2018-04-20T05:20:09.464Z,12.70
2018-04-20T05:22:38.739Z,12.70
2018-04-20T05:25:08.265Z,12.70
2018-04-20T05:27:37.553Z,12.80
2018-04-20T05:30:07.748Z,12.90
2018-04-20T05:32:37.855Z,13.00
2018-04-20T05:35:07.250Z,13.00
2018-04-20T05:37:36.582Z,13.10
2018-04-20T05:40:06.851Z,13.20
2018-04-20T05:42:37.170Z,13.30
2018-04-20T05:45:06.453Z,13.40
2018-04-20T05:47:35.767Z,13.50
2018-04-20T05:50:05.055Z,13.60
2018-04-20T05:52:34.319Z,13.70
2018-04-20T05:55:04.537Z,14.00
2018-04-20T05:57:34.804Z,14.20
2018-04-20T06:00:04.092Z,14.20
2018-04-20T06:02:33.384Z,15.50
2018-04-20T06:05:02.813Z,17.90
2018-04-20T06:07:32.193Z,20.40
2018-04-20T06:10:01.499Z,22.80
2018-04-20T06:12:30.813Z,25.10
2018-04-20T06:15:00.994Z,26.90
2018-04-20T06:17:30.434Z,28.50
2018-04-20T06:20:01.169Z,29.90
2018-04-20T06:22:31.485Z,30.90
2018-04-20T06:25:00.752Z,31.50
2018-04-20T06:27:30.831Z,32.90
2018-04-20T06:30:00.123Z,32.80
2018-04-20T06:32:29.663Z,33.40
2018-04-20T06:34:59.927Z,34.80
2018-04-20T06:37:29.184Z,34.70
2018-04-20T06:39:58.477Z,35.60
2018-04-20T06:42:27.750Z,36.20
2018-04-20T06:44:57.139Z,36.50
2018-04-20T06:47:26.418Z,36.80
2018-04-20T06:49:56.452Z,37.30
2018-04-20T06:52:25.712Z,37.30
2018-04-20T06:54:55.937Z,37.50
2018-04-20T06:57:25.984Z,37.70
2018-04-20T06:59:55.333Z,37.70
2018-04-20T07:02:24.590Z,37.90
2018-04-20T07:04:53.904Z,37.90
2018-04-20T07:07:23.193Z,38.50
2018-04-20T07:09:52.485Z,39.20
2018-04-20T07:12:21.772Z,39.50
2018-04-20T07:14:51.035Z,39.30
2018-04-20T07:17:20.313Z,39.40
2018-04-20T07:19:49.581Z,39.80
2018-04-20T07:22:19.603Z,40.00
2018-04-20T07:24:48.899Z,40.00
2018-04-20T07:27:18.933Z,40.70
2018-04-20T07:29:48.342Z,40.70
2018-04-20T07:32:17.585Z,40.80
2018-04-20T07:34:47.438Z,41.20
2018-04-20T07:37:16.797Z,41.30
2018-04-20T07:39:46.117Z,41.90
2018-04-20T07:42:16.141Z,41.90
2018-04-20T07:44:45.535Z,41.90
2018-04-20T07:47:15.558Z,42.40
2018-04-20T07:49:44.957Z,42.40
2018-04-20T07:52:15.016Z,42.20
2018-04-20T07:54:44.276Z,42.20
2018-04-20T07:57:14.229Z,42.40
2018-04-20T07:59:43.506Z,42.30
2018-04-20T08:02:12.783Z,42.70
2018-04-20T08:04:42.829Z,42.90
2018-04-20T08:07:12.107Z,42.80
2018-04-20T08:09:42.148Z,43.10
2018-04-20T08:12:11.435Z,43.10
2018-04-20T08:14:41.938Z,43.20
2018-04-20T08:17:11.970Z,43.60
2018-04-20T08:19:41.257Z,43.50
2018-04-20T08:22:11.327Z,43.70
2018-04-20T08:24:40.605Z,43.70
2018-04-20T08:27:10.245Z,43.70
2018-04-20T08:29:39.495Z,42.90
2018-04-20T08:32:09.550Z,41.80
2018-04-20T08:34:38.837Z,41.70
2018-04-20T08:37:08.229Z,42.20
2018-04-20T08:39:38.247Z,42.00
2018-04-20T08:42:08.346Z,42.70
2018-04-20T08:44:38.200Z,42.70
2018-04-20T08:47:07.469Z,42.30
2018-04-20T08:49:37.705Z,42.60
2018-04-20T08:52:08.475Z,43.40
2018-04-20T08:54:37.741Z,43.40
2018-04-20T08:57:07.009Z,43.20
2018-04-20T08:59:37.061Z,41.90
2018-04-20T09:02:06.322Z,41.80
2018-04-20T09:04:36.367Z,41.10
2018-04-20T09:07:06.394Z,41.50
2018-04-20T09:09:35.780Z,41.50
2018-04-20T09:12:05.825Z,41.50
2018-04-20T09:14:35.089Z,41.50
2018-04-20T09:17:05.172Z,42.30
2018-04-20T09:19:34.600Z,42.30
2018-04-20T09:22:03.899Z,42.90
2018-04-20T09:24:33.185Z,42.50
2018-04-20T09:27:02.449Z,42.20
2018-04-20T09:29:32.649Z,41.10
2018-04-20T09:32:02.007Z,39.80
2018-04-20T09:34:31.382Z,40.10
2018-04-20T09:37:00.746Z,41.10
2018-04-20T09:39:30.281Z,41.60
2018-04-20T09:41:59.541Z,42.90
2018-04-20T09:44:28.805Z,44.00
2018-04-20T09:46:59.758Z,44.60
2018-04-20T09:49:29.019Z,43.40
2018-04-20T09:51:58.308Z,42.90
2018-04-20T09:54:27.609Z,43.60
2018-04-20T09:56:56.903Z,43.10
2018-04-20T09:59:26.919Z,43.10
2018-04-20T10:01:56.242Z,43.10
2018-04-20T10:04:30.375Z,43.70
2018-04-20T10:07:00.454Z,43.90
2018-04-20T10:09:29.701Z,44.60
2018-04-20T10:11:58.961Z,44.60
2018-04-20T10:14:28.414Z,44.30
2018-04-20T10:16:57.689Z,43.50
2018-04-20T10:19:27.044Z,43.00
2018-04-20T10:21:57.127Z,41.90
2018-04-20T10:24:26.405Z,41.90
2018-04-20T10:26:55.708Z,41.50
2018-04-20T10:29:25.012Z,41.80
2018-04-20T10:31:54.285Z,40.90
2018-04-20T10:34:23.599Z,40.70
2018-04-20T10:36:52.920Z,41.30
2018-04-20T10:39:22.193Z,41.00
2018-04-20T10:41:51.464Z,40.70
2018-04-20T10:44:21.141Z,41.30
2018-04-20T10:46:50.398Z,41.90
2018-04-20T10:49:19.781Z,42.40
2018-04-20T10:51:49.822Z,43.20
2018-04-20T10:54:19.109Z,43.20
2018-04-20T10:56:48.394Z,42.10
2018-04-20T10:59:18.525Z,42.30
2018-04-20T11:01:47.807Z,42.30
2018-04-20T11:04:17.913Z,42.20
2018-04-20T11:06:47.200Z,42.20
2018-04-20T11:09:16.508Z,41.60
2018-04-20T11:11:45.921Z,41.60
2018-04-20T11:14:15.977Z,42.20
2018-04-20T11:16:45.284Z,42.20
2018-04-20T11:19:14.549Z,41.50
2018-04-20T11:21:45.528Z,41.10
2018-04-20T11:24:14.912Z,41.10
2018-04-20T11:26:45.028Z,40.00
2018-04-20T11:29:15.190Z,39.40
2018-04-20T11:31:44.530Z,39.40
2018-04-20T11:34:14.591Z,37.20
2018-04-20T11:36:43.890Z,37.20
2018-04-20T11:39:13.164Z,35.90
2018-04-20T11:41:43.205Z,32.80
2018-04-20T11:44:12.496Z,32.70
2018-04-20T11:46:41.794Z,32.10
2018-04-20T11:49:11.085Z,31.30
2018-04-20T11:51:41.102Z,30.60
2018-04-20T11:54:10.384Z,30.60
2018-04-20T11:56:40.423Z,30.00
2018-04-20T11:59:09.695Z,29.90
2018-04-20T12:01:38.984Z,29.90
2018-04-20T12:04:09.269Z,29.60
2018-04-20T12:06:38.838Z,29.60
2018-04-20T12:09:16.442Z,29.40
2018-04-20T12:11:47.030Z,29.30
2018-04-20T12:14:16.303Z,29.40
2018-04-20T12:16:45.771Z,29.40
2018-04-20T12:19:15.192Z,29.30
2018-04-20T12:21:44.578Z,29.40
2018-04-20T12:24:13.898Z,29.40
2018-04-20T12:26:43.201Z,29.20
2018-04-20T12:29:12.478Z,29.30
2018-04-20T12:31:41.881Z,29.30
2018-04-20T12:34:12.037Z,29.20
2018-04-20T12:36:41.307Z,29.20
2018-04-20T12:39:11.610Z,29.30
2018-04-20T12:41:41.015Z,29.30
2018-04-20T12:44:10.307Z,29.30
2018-04-20T12:46:39.595Z,29.20
2018-04-20T12:49:09.858Z,29.40
2018-04-20T12:51:40.032Z,29.30
2018-04-20T12:54:09.346Z,29.30
2018-04-20T12:56:38.690Z,29.40
2018-04-20T12:59:07.934Z,29.40
2018-04-20T13:01:37.226Z,29.40
2018-04-20T13:04:06.502Z,29.60
2018-04-20T13:06:35.777Z,29.70
2018-04-20T13:09:05.125Z,29.70
2018-04-20T13:11:34.561Z,29.30
2018-04-20T13:14:03.907Z,29.10
2018-04-20T13:16:33.173Z,29.10
2018-04-20T13:19:02.898Z,29.10
2018-04-20T13:21:32.967Z,29.30
2018-04-20T13:24:02.230Z,29.30
2018-04-20T13:26:32.265Z,29.10
2018-04-20T13:29:01.620Z,29.10
2018-04-20T13:31:30.947Z,29.10
2018-04-20T13:34:00.835Z,29.20
2018-04-20T13:36:31.701Z,28.80
2018-04-20T13:39:01.878Z,28.80
2018-04-20T13:41:31.133Z,28.80
2018-04-20T13:44:00.458Z,28.80
2018-04-20T13:46:29.722Z,29.00
2018-04-20T13:48:59.357Z,29.10
2018-04-20T13:51:28.643Z,29.30
2018-04-20T13:53:57.898Z,29.20
2018-04-20T13:56:28.054Z,29.50
2018-04-20T13:58:57.355Z,29.50
2018-04-20T14:01:26.617Z,29.60
2018-04-20T14:03:56.678Z,29.30
2018-04-20T14:06:26.601Z,29.30
2018-04-20T14:08:56.628Z,29.10
2018-04-20T14:11:25.871Z,29.00
2018-04-20T14:13:56.015Z,29.00
2018-04-20T14:16:26.048Z,29.00
2018-04-20T14:18:55.464Z,29.00
2018-04-20T14:21:24.745Z,28.90
2018-04-20T14:23:54.026Z,29.00
2018-04-20T14:26:24.280Z,29.10
2018-04-20T14:28:53.494Z,29.10
2018-04-20T14:31:22.768Z,29.20
2018-04-20T14:33:52.080Z,29.20
2018-04-20T14:36:21.365Z,29.20
2018-04-20T14:38:50.641Z,29.20
2018-04-20T14:41:20.870Z,29.20
2018-04-20T14:43:50.972Z,29.30
2018-04-20T14:46:20.188Z,29.30
2018-04-20T14:48:50.237Z,29.10
2018-04-20T14:51:19.507Z,29.10
2018-04-20T14:53:49.541Z,29.10
2018-04-20T14:56:18.792Z,29.00
2018-04-20T14:58:48.098Z,29.10
2018-04-20T15:01:18.854Z,29.20
2018-04-20T15:03:48.873Z,29.30
2018-04-20T15:06:19.003Z,29.50
2018-04-20T15:08:48.225Z,29.50
2018-04-20T15:11:17.498Z,29.50
2018-04-20T15:13:46.778Z,29.40
2018-04-20T15:16:16.037Z,29.30
2018-04-20T15:18:45.366Z,29.20
2018-04-20T15:21:14.586Z,29.30
2018-04-20T15:23:44.605Z,29.50
2018-04-20T15:26:13.872Z,29.50
2018-04-20T15:28:43.224Z,29.60
2018-04-20T15:31:12.728Z,29.50
2018-04-20T15:33:42.093Z,29.30
2018-04-20T15:36:11.398Z,29.20
2018-04-20T15:38:40.849Z,29.10
2018-04-20T15:41:10.166Z,29.10
2018-04-20T15:43:39.830Z,29.20
2018-04-20T15:46:09.236Z,29.20
2018-04-20T15:48:39.287Z,29.30
2018-04-20T15:51:08.573Z,29.30
2018-04-20T15:53:37.839Z,29.30
2018-04-20T15:56:07.119Z,29.20
2018-04-20T15:58:36.448Z,29.20
2018-04-20T16:01:06.513Z,29.00
2018-04-20T16:03:35.954Z,29.00
2018-04-20T16:06:05.349Z,28.90
2018-04-20T16:08:35.430Z,28.80
2018-04-20T16:11:04.828Z,28.80
2018-04-20T16:13:34.138Z,28.80
2018-04-20T16:16:03.885Z,28.70
2018-04-20T16:18:33.391Z,28.80
2018-04-20T16:21:02.684Z,28.60
2018-04-20T16:23:32.142Z,28.50
2018-04-20T16:26:02.167Z,28.00
2018-04-20T16:28:31.652Z,28.00
2018-04-20T16:31:00.966Z,27.70
2018-04-20T16:33:30.584Z,27.50
2018-04-20T16:36:00.140Z,27.30
2018-04-20T16:38:29.693Z,27.00
2018-04-20T16:40:59.104Z,26.70
2018-04-20T16:43:29.277Z,26.30
2018-04-20T16:45:59.176Z,25.90
2018-04-20T16:48:29.399Z,25.30
2018-04-20T16:50:58.681Z,25.30
2018-04-20T16:53:27.968Z,25.20
2018-04-20T16:55:57.261Z,24.90
2018-04-20T16:58:26.683Z,24.70
2018-04-20T17:00:55.958Z,24.60
2018-04-20T17:03:25.941Z,24.30
2018-04-20T17:05:56.075Z,23.90
2018-04-20T17:08:25.476Z,23.90
2018-04-20T17:10:54.732Z,23.70
2018-04-20T17:13:24.028Z,23.40
2018-04-20T17:18:29.514Z,22.50
2018-04-20T17:20:58.779Z,22.50
2018-04-20T17:23:28.054Z,22.30
2018-04-20T17:25:57.304Z,22.00
2018-04-20T17:28:26.694Z,21.80
2018-04-20T17:30:58.340Z,21.70
2018-04-20T17:33:27.593Z,21.70
2018-04-20T17:35:56.879Z,21.60
2018-04-20T17:38:26.913Z,21.50
2018-04-20T17:40:56.319Z,21.50
2018-04-20T17:43:25.590Z,21.40
2018-04-20T17:45:54.862Z,21.30
2018-04-20T17:48:24.161Z,21.10
2018-04-20T17:50:53.432Z,21.10
2018-04-20T17:53:23.022Z,21.00
2018-04-20T17:55:52.333Z,21.00
2018-04-20T17:58:21.800Z,20.90
2018-04-20T18:00:51.874Z,20.80
2018-04-20T18:03:21.167Z,20.80
2018-04-20T18:05:50.679Z,20.80
2018-04-20T18:08:19.980Z,20.80
2018-04-20T18:10:49.256Z,20.80
2018-04-20T18:13:18.771Z,20.60
2018-04-20T18:15:48.904Z,20.50
2018-04-20T18:18:18.177Z,20.50
2018-04-20T18:20:47.481Z,20.40
2018-04-20T18:23:17.540Z,20.20
2018-04-20T18:25:46.971Z,20.10
2018-04-20T18:28:17.813Z,19.90
2018-04-20T18:30:47.171Z,19.90
2018-04-20T18:33:16.464Z,19.90
2018-04-20T18:35:45.779Z,19.70
2018-04-20T18:38:15.121Z,19.60
2018-04-20T18:40:44.526Z,19.50
2018-04-20T18:43:14.919Z,19.40
2018-04-20T18:45:44.251Z,19.40
2018-04-20T18:48:14.311Z,19.20
2018-04-20T18:50:43.565Z,19.10
2018-04-20T18:53:12.893Z,19.10
2018-04-20T18:55:43.115Z,19.00
2018-04-20T18:58:12.347Z,19.00
2018-04-20T19:00:41.616Z,18.90
2018-04-20T19:03:10.877Z,18.80
2018-04-20T19:05:40.149Z,18.80
2018-04-20T19:08:11.010Z,18.60
2018-04-20T19:10:40.309Z,18.60
2018-04-20T19:13:09.815Z,18.50
2018-04-20T19:15:39.140Z,18.50
2018-04-20T19:18:09.196Z,18.30
2018-04-20T19:20:38.517Z,18.30
2018-04-20T19:23:07.773Z,18.20
2018-04-20T19:25:37.841Z,18.10
2018-04-20T19:28:07.139Z,18.10
2018-04-20T19:30:36.405Z,18.00
2018-04-20T19:33:05.703Z,17.90
2018-04-20T19:35:35.036Z,17.90
2018-04-20T19:38:04.292Z,17.90
2018-04-20T19:40:33.590Z,17.80
2018-04-20T19:43:03.625Z,17.70
2018-04-20T19:45:32.950Z,17.70
2018-04-20T19:48:02.234Z,17.60
2018-04-20T19:50:31.604Z,17.50
2018-04-20T19:53:02.232Z,17.50
2018-04-20T19:55:32.249Z,17.40
2018-04-20T19:58:01.665Z,17.40
2018-04-20T20:00:30.952Z,17.30
2018-04-20T20:03:00.285Z,17.20
2018-04-20T20:05:29.557Z,17.10
2018-04-20T20:07:58.850Z,17.00
2018-04-20T20:10:28.881Z,17.00
2018-04-20T20:12:58.175Z,17.00
2018-04-20T20:15:28.198Z,16.90
2018-04-20T20:17:58.617Z,16.90
2018-04-20T20:20:28.664Z,16.90
2018-04-20T20:22:57.925Z,16.90
2018-04-20T20:25:27.999Z,16.90
2018-04-20T20:27:57.240Z,16.90
2018-04-20T20:30:27.379Z,16.80
2018-04-20T20:32:57.422Z,16.80
2018-04-20T20:35:26.694Z,16.70
2018-04-20T20:37:55.997Z,16.70
2018-04-20T20:40:26.042Z,16.60
2018-04-20T20:42:55.404Z,16.60
2018-04-20T20:45:25.625Z,16.60
2018-04-20T20:47:55.671Z,16.50
2018-04-20T20:50:24.936Z,16.50
2018-04-20T20:52:54.980Z,16.40
2018-04-20T20:55:24.304Z,16.40
2018-04-20T20:57:53.598Z,16.40
2018-04-20T21:00:22.897Z,16.40
2018-04-20T21:02:52.253Z,16.40
2018-04-20T21:05:21.524Z,16.40
2018-04-20T21:07:50.787Z,16.30
2018-04-20T21:10:20.417Z,16.30
2018-04-20T21:12:49.710Z,16.20
2018-04-20T21:15:19.151Z,16.20
2018-04-20T21:17:48.429Z,16.20
2018-04-20T21:20:17.699Z,16.20
2018-04-20T21:22:47.019Z,16.10
2018-04-20T21:25:16.309Z,16.10
2018-04-20T21:27:45.611Z,16.10
2018-04-20T21:30:14.902Z,16.10
2018-04-20T21:32:44.683Z,16.00
2018-04-20T21:35:14.224Z,16.00
2018-04-20T21:37:44.040Z,16.00
2018-04-20T21:40:13.341Z,15.90
2018-04-20T21:42:42.941Z,15.90
2018-04-20T21:45:12.961Z,15.90
2018-04-20T21:47:42.387Z,15.90
2018-04-20T21:50:11.775Z,15.90
2018-04-20T21:52:41.247Z,15.90
2018-04-20T21:55:12.080Z,15.80
2018-04-20T21:57:41.630Z,15.80
2018-04-20T22:00:10.930Z,15.70
2018-04-20T22:02:40.429Z,15.70
2018-04-20T22:05:09.824Z,15.70
2018-04-20T22:07:39.097Z,15.60
2018-04-20T22:10:12.031Z,15.50
2018-04-20T22:12:41.302Z,15.50
2018-04-20T22:15:10.712Z,15.50
2018-04-20T22:17:40.088Z,15.40
2018-04-20T22:20:10.244Z,15.30
2018-04-20T22:22:39.518Z,15.30
2018-04-20T22:25:09.555Z,15.30
2018-04-20T22:27:38.845Z,15.30
2018-04-20T22:30:08.256Z,15.30
2018-04-20T22:32:37.531Z,15.30
2018-04-20T22:35:07.696Z,15.10
2018-04-20T22:37:36.997Z,15.10
2018-04-20T22:40:06.307Z,15.10
2018-04-20T22:42:35.585Z,15.10
2018-04-20T22:45:04.979Z,15.00
2018-04-20T22:47:35.360Z,14.90
2018-04-20T22:50:04.743Z,14.90
2018-04-20T22:52:34.014Z,15.00
2018-04-20T22:55:03.626Z,14.90
2018-04-20T22:57:32.956Z,15.00
2018-04-20T23:00:02.315Z,14.90
2018-04-20T23:02:31.317Z,15.00
2018-04-20T23:05:00.789Z,15.00
2018-04-20T23:07:30.818Z,15.00
2018-04-20T23:10:00.135Z,15.00
2018-04-20T23:12:29.426Z,15.00
2018-04-20T23:14:58.724Z,15.00
2018-04-20T23:17:28.186Z,15.00
2018-04-20T23:19:57.601Z,15.00
2018-04-20T23:22:30.980Z,15.00
2018-04-20T23:25:00.245Z,15.00
2018-04-20T23:27:29.527Z,15.00
2018-04-20T23:29:58.801Z,15.00
2018-04-20T23:32:28.896Z,14.90
2018-04-20T23:34:58.205Z,14.90
2018-04-20T23:37:27.480Z,14.90
2018-04-20T23:39:56.947Z,14.90
2018-04-20T23:42:26.409Z,14.80
2018-04-20T23:44:55.740Z,14.80
2018-04-20T23:47:25.804Z,14.80
2018-04-20T23:49:55.741Z,14.80
2018-04-20T23:52:25.077Z,14.80
2018-04-20T23:54:54.731Z,14.80
2018-04-20T23:57:24.004Z,14.80
2018-04-20T23:59:54.368Z,14.70
